Sibi Weather



Sibi's Current Weather

Temprature 21.23o scattered clouds

scattered clouds

Rain: 0 %

Min Temprature21.23o
Max Temprature21.23o
Humidity23
Wind Speed5.21 m/h
Sun Rise07:20:55
Sun Set18:00:57
Current Time: 27-Jan-2020 18:27:29
Lat/Lon: 29.54, 67.88




Sibi's Geo Location



Sibi's Weather Forecast

Time Overall Temp Min Temp Max Temp Humidity Wind Speed Rain
27-Jan-2020 (Mon)
20:00:00 scattered clouds 17.770 17.770 17.770 33 5.4 m/h 0 %
23:00:00 few clouds 16.080 16.080 16.080 37 5.36 m/h 0 %
28-Jan-2020 (Tue)
02:00:00 scattered clouds 14.840 14.840 14.840 40 4.11 m/h 0 %
05:00:00 few clouds 13.490 13.490 13.490 43 3.39 m/h 0 %
08:00:00 clear sky 13.350 13.350 13.350 41 2.34 m/h 0 %
11:00:00 clear sky 17.470 17.470 17.470 28 2.17 m/h 0 %
14:00:00 clear sky 19.870 19.870 19.870 24 2.96 m/h 0 %
17:00:00 clear sky 19.530 19.530 19.530 24 3.61 m/h 0 %
20:00:00 clear sky 16.800 16.800 16.800 32 2.58 m/h 0 %
23:00:00 clear sky 15.610 15.610 15.610 35 5 m/h 0 %
29-Jan-2020 (Wed)
02:00:00 clear sky 14.400 14.400 14.400 37 3.76 m/h 0 %
05:00:00 clear sky 13.120 13.120 13.120 39 3.64 m/h 0 %
08:00:00 clear sky 12.620 12.620 12.620 40 2.98 m/h 0 %
11:00:00 clear sky 17.130 17.130 17.130 26 2.85 m/h 0 %
14:00:00 clear sky 19.240 19.240 19.240 19 1.07 m/h 0 %
17:00:00 clear sky 19.710 19.710 19.710 16 0.21 m/h 0 %
20:00:00 clear sky 15.950 15.950 15.950 25 1 m/h 0 %
23:00:00 clear sky 14.070 14.070 14.070 30 0.46 m/h 0 %
30-Jan-2020 (Thu)
02:00:00 clear sky 13.250 13.250 13.250 30 1.3 m/h 0 %
05:00:00 scattered clouds 13.160 13.160 13.160 28 2.14 m/h 0 %
08:00:00 scattered clouds 12.340 12.340 12.340 30 1.51 m/h 0 %
11:00:00 few clouds 17.480 17.480 17.480 20 2.46 m/h 0 %
14:00:00 clear sky 19.430 19.430 19.430 24 2.65 m/h 0 %
17:00:00 clear sky 19.510 19.510 19.510 25 1.97 m/h 0 %
20:00:00 clear sky 16.610 16.610 16.610 34 1.65 m/h 0 %
23:00:00 clear sky 15.420 15.420 15.420 34 1.75 m/h 0 %
31-Jan-2020 (Fri)
02:00:00 clear sky 13.750 13.750 13.750 37 1.09 m/h 0 %
05:00:00 clear sky 13.360 13.360 13.360 34 2.05 m/h 0 %
08:00:00 broken clouds 12.960 12.960 12.960 36 1 m/h 0 %
11:00:00 scattered clouds 18.350 18.350 18.350 25 0.71 m/h 0 %
14:00:00 clear sky 20.290 20.290 20.290 21 0.71 m/h 0 %
17:00:00 clear sky 21.100 21.100 21.100 18 2.04 m/h 0 %
20:00:00 clear sky 17.130 17.130 17.130 28 1.13 m/h 0 %
23:00:00 clear sky 16.270 16.270 16.270 27 3.88 m/h 0 %
01-Feb-2020 (Sat)
02:00:00 clear sky 14.750 14.750 14.750 29 3.12 m/h 0 %
05:00:00 clear sky 13.470 13.470 13.470 31 2.57 m/h 0 %
08:00:00 clear sky 13.190 13.190 13.190 32 1.71 m/h 0 %
11:00:00 clear sky 18.420 18.420 18.420 22 1.26 m/h 0 %
14:00:00 clear sky 20.840 20.840 20.840 18 0.98 m/h 0 %
17:00:00 clear sky 21.080 21.080 21.080 17 1.68 m/h 0 %

Famous Cities (61)